Airfield :
LOGIN :

Register | Disclaimer

   EN    FR    IT 

 










Legend :    VFR   Marginal VFR   IFR   Intensive IFR   Very Intensive IFR
Visi :
Ceiling :
>= 8 km
>= 3000ft
5 to 8 km
1000 to 3000 ft
1500m to 5 km
500 to 1000 ft
800 to 1500m
200 to 500 ft
< 800m
< 200 ft
Symbols :   Thunderstorms  Fog  Heavy snow  Heavy precipitations  Wind > 20 kt
SIGMETs :     Misc.  Thunderstorms  Icing  Turbulence  Mountain Waves  Volcanic Ashes







- Airport Elevation : 82 ft
- IATA code : ALG


DAAG - Alger Houari Boumedienne

CURRENT METAR :
  • 200700Z 23005KT 210V270 9999 FEW020 SCT200 17/11 Q1014

EXPIRED METARs :
  • 200630Z 21004KT 180V240 9999 FEW020 SCT200 13/11 Q1014
  • 200600Z 00000KT 9999 FEW020 SCT200 13/11 Q1014
  • 200530Z 00000KT 9999 FEW020 SCT200 11/10 Q1013
  • 200500Z 00000KT 9999 FEW020 SCT200 09/08 Q1013
  • 200430Z 00000KT 9999 FEW020 SCT200 09/08 Q1013

TAF TAF DAAG
Valid from the 20 at 00:00 until the 21 at 00:00 UTC


192300Z 2000/2024 VRB02KT 9999 FEW020
PROB30
TEMPO 2000/2006 4000 BR
BECMG 2010/2012 02010KT
PROB30
TEMPO 2018/2024 FEW026TCU
No reported NOTAMs for that airfield.



MET'MAP, your aeronautical weather chart ! - Copyright ORBIFLY December 2007 - Disclaimer

ORBIFLY MET'MAP TEAM :

Programming & Development : Alexandra Zaïnal
Concept & Development : Baudouin d'Aumeries
Co-Development & Prog : Marc-Olivier Méhu
Technical & hardware support : Manuel Goepfert

Contact : metmap@orbifly.com




SOURCES & CREDITS :

   NOAA